Flight Track Log - Related Links

Times and Time Zones

All times are in EDT time to prevent confusion due to time zone crossing. See the VH-LBB flight status page for this flight to view local times or setup timezone preferences in your user account.

Time Position Orientation Groundspeed Altitude Reporting Facility
EDT Latitude Longitude Course Direction KTS MPH feet Rate Location/Type
03:57AM -17.0435 122.6242 360° North 300  Level Aus ATC (Calculated)
03:58AM -17.0435 122.6242 360° North 300  Level Aus ATC (Calculated)
03:58AM -17.0435 122.6242 202° Southwest 300  Level Aus ATC (Calculated)
04:00AM -17.0766 122.6100 202° Southwest  Level FlightAware Approximate
04:01AM -17.1091 122.5961 202° Southwest  Level FlightAware Approximate
04:01AM -17.2128 122.5516 22° Northeast 300  Level Aus ATC (Calculated)
04:02AM -17.1417 122.5821 202° Southwest  Level FlightAware Approximate
04:03AM -17.2470 122.5369 202° Southwest  Level FlightAware Approximate
04:03AM -17.3045 122.5122 202° Southwest 300  Level Aus ATC (Calculated)
04:05AM -17.3598 122.4884 202° Southwest  Level FlightAware Approximate
04:06AM -17.3924 122.4744 202° Southwest  Level FlightAware Approximate
04:06AM -17.3847 122.4777 202° Southwest 300  Level Aus ATC (Calculated)
04:08AM -17.4487 122.4502 202° Southwest  Level FlightAware Approximate
04:08AM -17.5251 122.4172 130° Southeast 300  Level Aus ATC (Calculated)
04:08AM -17.5251 122.4172 360° North 300  Level Aus ATC (Calculated)
04:08AM -17.5251 122.4172 22° Northeast 300  Level Aus ATC (Calculated)
04:09AM -17.4812 122.4361 202° Southwest  Level FlightAware Approximate
04:10AM -17.5636 122.4006 202° Southwest  Level FlightAware Approximate
04:11AM -17.5962 122.3866 202° Southwest  Level FlightAware Approximate
04:12AM -17.6287 122.3726 202° Southwest  Level FlightAware Approximate
04:13AM -17.6613 122.3585 202° Southwest  Level FlightAware Approximate
04:14AM -17.6938 122.3445 202° Southwest  Level FlightAware Approximate
04:15AM -17.7263 122.3304 202° Southwest  Level FlightAware Approximate
04:16AM -17.7589 122.3164 202° Southwest  Level FlightAware Approximate
04:17AM -17.7914 122.3023 202° Southwest  Level FlightAware Approximate
04:18AM -17.8239 122.2883 202° Southwest  Level FlightAware Approximate
04:19AM -17.8564 122.2742 202° Southwest  Level FlightAware Approximate
04:20AM -17.8890 122.2601 202° Southwest  Level FlightAware Approximate
04:21AM -17.9215 122.2460 202° Southwest  Level FlightAware Approximate
04:22AM -17.9447 122.2317 202° Southwest  Level Estimated
04:23AM -17.9496 122.2277 245° Southwest  Level FlightAware Approximate
04:24AM -17.9447 122.2317 245° Southwest  Level Estimated
04:25AM -17.9496 122.2277 245° Southwest  Level FlightAware Approximate
04:26AM -17.9447 122.2317 245° Southwest  Level Estimated
04:27AM -17.9496 122.2277 245° Southwest  Level FlightAware Approximate
04:28AM -17.9447 122.2317 245° Southwest  Level Estimated
04:29AM -17.9496 122.2277 245° Southwest  Level FlightAware Approximate
04:30AM -17.9447 122.2317 245° Southwest  Level Estimated
04:31AM -17.9496 122.2277 245° Southwest  Level FlightAware Approximate
04:32AM -17.9447 122.2317 245° Southwest  Level Estimated
04:33AM -17.9496 122.2277 245° Southwest  Level FlightAware Approximate
04:34AM -17.9447 122.2317 245° Southwest  Level Estimated
04:35AM -17.9496 122.2277 245° Southwest  Level FlightAware Approximate
04:36AM -17.9447 122.2317 245° Southwest  Level Estimated
04:37AM -17.9496 122.2277 245° Southwest  Level FlightAware Approximate
04:38AM -17.9447 122.2317 245° Southwest  Level Estimated
04:39AM -17.9496 122.2277 245° Southwest  Level FlightAware Approximate
04:40AM -17.9447 122.2317 245° Southwest  Level Estimated
04:41AM -17.9496 122.2277 245° Southwest  Level FlightAware Approximate
04:42AM -17.9447 122.2317 245° Southwest  Level Estimated

Login

Don't have an account? Register now (free) for customized features, flight alerts, and more!